sensor_id;sensor_type;location;lat;lon;timestamp;P1;durP1;ratioP1;P2;durP2;ratioP2
76157;SDS011;64907;51.574;6.502;2023-02-22T00:02:10;81.68;;;38.95;;
76157;SDS011;64907;51.574;6.502;2023-02-22T00:04:43;84.65;;;38.75;;
76157;SDS011;64907;51.574;6.502;2023-02-22T00:07:08;82.88;;;38.28;;
76157;SDS011;64907;51.574;6.502;2023-02-22T00:09:33;88.60;;;39.97;;
76157;SDS011;64907;51.574;6.502;2023-02-22T00:11:58;89.20;;;41.20;;
76157;SDS011;64907;51.574;6.502;2023-02-22T00:14:23;90.70;;;41.38;;
76157;SDS011;64907;51.574;6.502;2023-02-22T00:16:51;88.10;;;43.28;;
76157;SDS011;64907;51.574;6.502;2023-02-22T00:19:16;97.35;;;42.60;;
76157;SDS011;64907;51.574;6.502;2023-02-22T00:21:41;86.90;;;42.73;;
76157;SDS011;64907;51.574;6.502;2023-02-22T00:24:08;95.95;;;41.80;;
76157;SDS011;64907;51.574;6.502;2023-02-22T00:26:47;91.38;;;43.28;;
76157;SDS011;64907;51.574;6.502;2023-02-22T00:29:12;94.60;;;41.90;;
76157;SDS011;64907;51.574;6.502;2023-02-22T00:31:37;97.20;;;42.53;;
76157;SDS011;64907;51.574;6.502;2023-02-22T00:34:03;100.57;;;42.80;;
76157;SDS011;64907;51.574;6.502;2023-02-22T00:36:28;107.43;;;45.92;;
76157;SDS011;64907;51.574;6.502;2023-02-22T00:38:53;110.17;;;47.23;;
76157;SDS011;64907;51.574;6.502;2023-02-22T00:41:19;110.88;;;47.05;;
76157;SDS011;64907;51.574;6.502;2023-02-22T00:43:44;120.57;;;48.65;;
76157;SDS011;64907;51.574;6.502;2023-02-22T00:46:09;103.23;;;45.83;;
76157;SDS011;64907;51.574;6.502;2023-02-22T00:48:37;109.63;;;46.53;;
76157;SDS011;64907;51.574;6.502;2023-02-22T00:51:02;108.80;;;47.77;;
76157;SDS011;64907;51.574;6.502;2023-02-22T00:53:27;108.75;;;47.10;;
76157;SDS011;64907;51.574;6.502;2023-02-22T00:55:52;113.80;;;48.95;;
76157;SDS011;64907;51.574;6.502;2023-02-22T00:58:18;128.50;;;50.30;;
76157;SDS011;64907;51.574;6.502;2023-02-22T01:00:44;131.95;;;51.50;;
76157;SDS011;64907;51.574;6.502;2023-02-22T01:03:17;137.50;;;54.25;;
76157;SDS011;64907;51.574;6.502;2023-02-22T01:05:42;124.70;;;49.33;;
76157;SDS011;64907;51.574;6.502;2023-02-22T01:08:08;128.80;;;50.97;;
76157;SDS011;64907;51.574;6.502;2023-02-22T01:10:34;123.45;;;50.10;;
76157;SDS011;64907;51.574;6.502;2023-02-22T01:13:00;129.95;;;52.78;;
76157;SDS011;64907;51.574;6.502;2023-02-22T01:15:26;125.10;;;51.60;;
76157;SDS011;64907;51.574;6.502;2023-02-22T01:17:54;119.78;;;47.83;;
76157;SDS011;64907;51.574;6.502;2023-02-22T01:20:20;117.78;;;48.88;;
76157;SDS011;64907;51.574;6.502;2023-02-22T01:22:50;111.40;;;46.75;;
76157;SDS011;64907;51.574;6.502;2023-02-22T01:25:18;109.30;;;46.92;;
76157;SDS011;64907;51.574;6.502;2023-02-22T01:27:43;127.45;;;50.92;;
76157;SDS011;64907;51.574;6.502;2023-02-22T01:30:10;122.73;;;49.57;;
76157;SDS011;64907;51.574;6.502;2023-02-22T01:32:36;116.57;;;47.95;;
76157;SDS011;64907;51.574;6.502;2023-02-22T01:35:02;126.47;;;49.22;;
76157;SDS011;64907;51.574;6.502;2023-02-22T01:37:29;116.45;;;48.13;;
76157;SDS011;64907;51.574;6.502;2023-02-22T01:39:54;119.90;;;49.70;;
76157;SDS011;64907;51.574;6.502;2023-02-22T01:42:19;118.03;;;49.08;;
76157;SDS011;64907;51.574;6.502;2023-02-22T01:44:45;122.35;;;49.40;;
76157;SDS011;64907;51.574;6.502;2023-02-22T01:47:10;129.67;;;49.20;;
76157;SDS011;64907;51.574;6.502;2023-02-22T01:49:40;131.38;;;50.78;;
76157;SDS011;64907;51.574;6.502;2023-02-22T01:52:07;135.73;;;51.42;;
76157;SDS011;64907;51.574;6.502;2023-02-22T01:57:07;137.20;;;52.08;;
76157;SDS011;64907;51.574;6.502;2023-02-22T01:59:33;129.32;;;50.75;;
76157;SDS011;64907;51.574;6.502;2023-02-22T02:02:00;128.60;;;49.10;;
76157;SDS011;64907;51.574;6.502;2023-02-22T02:04:25;121.03;;;49.63;;
76157;SDS011;64907;51.574;6.502;2023-02-22T02:06:51;115.07;;;48.35;;
76157;SDS011;64907;51.574;6.502;2023-02-22T02:12:01;120.72;;;50.05;;
76157;SDS011;64907;51.574;6.502;2023-02-22T02:14:28;112.90;;;46.95;;
76157;SDS011;64907;51.574;6.502;2023-02-22T02:16:56;121.05;;;48.70;;
76157;SDS011;64907;51.574;6.502;2023-02-22T02:24:45;133.63;;;49.05;;
76157;SDS011;64907;51.574;6.502;2023-02-22T02:27:16;216.35;;;55.05;;
76157;SDS011;64907;51.574;6.502;2023-02-22T02:29:54;154.48;;;51.45;;
76157;SDS011;64907;51.574;6.502;2023-02-22T02:38:16;156.57;;;53.33;;
76157;SDS011;64907;51.574;6.502;2023-02-22T02:41:01;155.88;;;53.38;;
76157;SDS011;64907;51.574;6.502;2023-02-22T02:43:31;153.40;;;50.78;;
76157;SDS011;64907;51.574;6.502;2023-02-22T02:46:05;142.32;;;52.30;;
76157;SDS011;64907;51.574;6.502;2023-02-22T02:48:32;155.38;;;53.15;;
76157;SDS011;64907;51.574;6.502;2023-02-22T02:50:58;154.35;;;51.50;;
76157;SDS011;64907;51.574;6.502;2023-02-22T02:53:26;158.52;;;55.33;;
76157;SDS011;64907;51.574;6.502;2023-02-22T02:55:56;169.35;;;55.85;;
76157;SDS011;64907;51.574;6.502;2023-02-22T02:58:22;176.82;;;55.22;;
76157;SDS011;64907;51.574;6.502;2023-02-22T03:00:47;177.77;;;57.70;;
76157;SDS011;64907;51.574;6.502;2023-02-22T03:05:56;205.73;;;55.83;;
76157;SDS011;64907;51.574;6.502;2023-02-22T03:09:03;165.55;;;55.22;;
76157;SDS011;64907;51.574;6.502;2023-02-22T03:11:19;156.15;;;52.22;;
76157;SDS011;64907;51.574;6.502;2023-02-22T03:24:08;201.05;;;58.40;;
76157;SDS011;64907;51.574;6.502;2023-02-22T03:26:36;191.07;;;59.20;;
76157;SDS011;64907;51.574;6.502;2023-02-22T03:29:03;225.05;;;57.85;;
76157;SDS011;64907;51.574;6.502;2023-02-22T03:31:32;206.98;;;57.10;;
76157;SDS011;64907;51.574;6.502;2023-02-22T03:34:02;334.73;;;64.95;;
76157;SDS011;64907;51.574;6.502;2023-02-22T03:36:34;228.90;;;59.83;;
76157;SDS011;64907;51.574;6.502;2023-02-22T03:39:03;257.42;;;60.08;;
76157;SDS011;64907;51.574;6.502;2023-02-22T03:41:30;315.38;;;62.67;;
76157;SDS011;64907;51.574;6.502;2023-02-22T03:44:15;218.60;;;57.65;;
76157;SDS011;64907;51.574;6.502;2023-02-22T03:46:42;263.92;;;61.08;;
76157;SDS011;64907;51.574;6.502;2023-02-22T03:49:19;196.38;;;56.50;;
76157;SDS011;64907;51.574;6.502;2023-02-22T03:51:47;258.52;;;59.67;;
76157;SDS011;64907;51.574;6.502;2023-02-22T03:54:12;213.80;;;58.28;;
76157;SDS011;64907;51.574;6.502;2023-02-22T03:56:44;254.80;;;56.33;;
76157;SDS011;64907;51.574;6.502;2023-02-22T03:59:11;223.98;;;59.38;;
76157;SDS011;64907;51.574;6.502;2023-02-22T04:01:36;262.83;;;61.20;;
76157;SDS011;64907;51.574;6.502;2023-02-22T04:04:02;211.67;;;56.77;;
76157;SDS011;64907;51.574;6.502;2023-02-22T04:06:27;208.52;;;57.63;;
76157;SDS011;64907;51.574;6.502;2023-02-22T04:08:52;215.52;;;55.42;;
76157;SDS011;64907;51.574;6.502;2023-02-22T04:11:17;244.67;;;57.03;;
76157;SDS011;64907;51.574;6.502;2023-02-22T04:13:43;202.90;;;55.38;;
76157;SDS011;64907;51.574;6.502;2023-02-22T04:16:08;203.03;;;57.50;;
76157;SDS011;64907;51.574;6.502;2023-02-22T04:18:33;262.77;;;58.90;;
76157;SDS011;64907;51.574;6.502;2023-02-22T04:20:58;194.57;;;54.00;;
76157;SDS011;64907;51.574;6.502;2023-02-22T04:23:23;231.55;;;59.20;;
76157;SDS011;64907;51.574;6.502;2023-02-22T04:25:49;289.53;;;61.63;;
76157;SDS011;64907;51.574;6.502;2023-02-22T04:28:15;275.73;;;57.93;;
76157;SDS011;64907;51.574;6.502;2023-02-22T04:30:40;279.15;;;59.58;;
76157;SDS011;64907;51.574;6.502;2023-02-22T04:33:07;195.52;;;54.22;;
76157;SDS011;64907;51.574;6.502;2023-02-22T04:35:33;216.35;;;56.03;;
76157;SDS011;64907;51.574;6.502;2023-02-22T04:37:58;355.67;;;63.35;;
76157;SDS011;64907;51.574;6.502;2023-02-22T04:40:23;168.20;;;47.63;;
76157;SDS011;64907;51.574;6.502;2023-02-22T04:42:48;130.77;;;45.00;;
76157;SDS011;64907;51.574;6.502;2023-02-22T04:45:13;270.40;;;47.75;;
76157;SDS011;64907;51.574;6.502;2023-02-22T04:47:38;203.05;;;41.97;;
76157;SDS011;64907;51.574;6.502;2023-02-22T04:50:04;226.97;;;43.17;;
76157;SDS011;64907;51.574;6.502;2023-02-22T04:52:30;146.50;;;39.42;;
76157;SDS011;64907;51.574;6.502;2023-02-22T04:54:56;203.65;;;41.20;;
76157;SDS011;64907;51.574;6.502;2023-02-22T04:57:21;135.35;;;38.40;;
76157;SDS011;64907;51.574;6.502;2023-02-22T04:59:47;146.90;;;41.55;;
76157;SDS011;64907;51.574;6.502;2023-02-22T05:02:12;159.98;;;40.28;;
76157;SDS011;64907;51.574;6.502;2023-02-22T05:04:37;139.82;;;39.30;;
76157;SDS011;64907;51.574;6.502;2023-02-22T05:07:03;143.00;;;40.33;;
76157;SDS011;64907;51.574;6.502;2023-02-22T05:09:28;157.27;;;40.60;;
76157;SDS011;64907;51.574;6.502;2023-02-22T05:11:53;148.00;;;40.07;;
76157;SDS011;64907;51.574;6.502;2023-02-22T05:14:18;154.02;;;39.97;;
76157;SDS011;64907;51.574;6.502;2023-02-22T05:16:43;166.88;;;40.95;;
76157;SDS011;64907;51.574;6.502;2023-02-22T05:19:15;281.90;;;46.23;;
76157;SDS011;64907;51.574;6.502;2023-02-22T05:21:40;138.88;;;39.85;;
76157;SDS011;64907;51.574;6.502;2023-02-22T05:24:05;222.85;;;44.20;;
76157;SDS011;64907;51.574;6.502;2023-02-22T05:26:31;105.82;;;36.15;;
76157;SDS011;64907;51.574;6.502;2023-02-22T05:28:56;112.45;;;36.83;;
76157;SDS011;64907;51.574;6.502;2023-02-22T05:31:21;128.67;;;38.37;;
76157;SDS011;64907;51.574;6.502;2023-02-22T05:33:46;96.68;;;34.55;;
76157;SDS011;64907;51.574;6.502;2023-02-22T05:36:12;108.80;;;35.08;;
76157;SDS011;64907;51.574;6.502;2023-02-22T05:38:37;116.50;;;34.58;;
76157;SDS011;64907;51.574;6.502;2023-02-22T05:41:07;126.60;;;34.42;;
76157;SDS011;64907;51.574;6.502;2023-02-22T05:43:32;133.18;;;35.97;;
76157;SDS011;64907;51.574;6.502;2023-02-22T05:46:01;95.40;;;34.00;;
76157;SDS011;64907;51.574;6.502;2023-02-22T05:48:26;114.63;;;36.00;;
76157;SDS011;64907;51.574;6.502;2023-02-22T05:50:51;115.40;;;36.63;;
76157;SDS011;64907;51.574;6.502;2023-02-22T05:53:16;109.33;;;35.13;;
76157;SDS011;64907;51.574;6.502;2023-02-22T05:55:41;118.75;;;35.65;;
76157;SDS011;64907;51.574;6.502;2023-02-22T05:58:06;144.10;;;35.93;;
76157;SDS011;64907;51.574;6.502;2023-02-22T06:00:32;128.93;;;35.40;;
76157;SDS011;64907;51.574;6.502;2023-02-22T06:02:58;83.40;;;29.15;;
76157;SDS011;64907;51.574;6.502;2023-02-22T06:07:51;80.50;;;28.83;;
76157;SDS011;64907;51.574;6.502;2023-02-22T06:10:17;68.82;;;27.13;;
76157;SDS011;64907;51.574;6.502;2023-02-22T06:12:44;82.85;;;30.08;;
76157;SDS011;64907;51.574;6.502;2023-02-22T06:15:09;78.13;;;30.08;;
76157;SDS011;64907;51.574;6.502;2023-02-22T06:17:34;84.40;;;37.53;;
76157;SDS011;64907;51.574;6.502;2023-02-22T06:20:00;74.20;;;31.63;;
76157;SDS011;64907;51.574;6.502;2023-02-22T06:22:25;79.13;;;30.27;;
76157;SDS011;64907;51.574;6.502;2023-02-22T06:24:51;88.15;;;33.45;;
76157;SDS011;64907;51.574;6.502;2023-02-22T06:27:27;102.88;;;31.60;;
76157;SDS011;64907;51.574;6.502;2023-02-22T06:29:54;59.72;;;26.23;;
76157;SDS011;64907;51.574;6.502;2023-02-22T06:32:19;73.97;;;32.73;;
76157;SDS011;64907;51.574;6.502;2023-02-22T06:34:44;154.50;;;40.97;;
76157;SDS011;64907;51.574;6.502;2023-02-22T06:37:09;63.30;;;28.30;;
76157;SDS011;64907;51.574;6.502;2023-02-22T06:39:35;62.40;;;27.40;;
76157;SDS011;64907;51.574;6.502;2023-02-22T06:42:03;99.03;;;29.52;;
76157;SDS011;64907;51.574;6.502;2023-02-22T06:44:28;79.32;;;28.98;;
76157;SDS011;64907;51.574;6.502;2023-02-22T06:46:53;64.70;;;27.58;;
76157;SDS011;64907;51.574;6.502;2023-02-22T06:49:20;58.67;;;27.60;;
76157;SDS011;64907;51.574;6.502;2023-02-22T06:51:45;61.40;;;25.92;;
76157;SDS011;64907;51.574;6.502;2023-02-22T06:54:11;59.78;;;26.45;;
76157;SDS011;64907;51.574;6.502;2023-02-22T06:56:36;68.13;;;28.35;;
76157;SDS011;64907;51.574;6.502;2023-02-22T06:59:01;60.70;;;30.70;;
76157;SDS011;64907;51.574;6.502;2023-02-22T07:01:27;79.55;;;32.40;;
76157;SDS011;64907;51.574;6.502;2023-02-22T07:03:52;67.53;;;29.67;;
76157;SDS011;64907;51.574;6.502;2023-02-22T07:06:17;57.30;;;28.08;;
76157;SDS011;64907;51.574;6.502;2023-02-22T07:08:55;59.42;;;26.30;;
76157;SDS011;64907;51.574;6.502;2023-02-22T07:11:20;62.60;;;27.00;;
76157;SDS011;64907;51.574;6.502;2023-02-22T07:13:45;58.90;;;26.87;;
76157;SDS011;64907;51.574;6.502;2023-02-22T07:16:10;54.77;;;26.70;;
76157;SDS011;64907;51.574;6.502;2023-02-22T07:21:06;60.92;;;27.17;;
76157;SDS011;64907;51.574;6.502;2023-02-22T07:23:34;60.85;;;25.83;;
76157;SDS011;64907;51.574;6.502;2023-02-22T07:26:00;64.93;;;27.60;;
76157;SDS011;64907;51.574;6.502;2023-02-22T07:28:25;58.03;;;26.98;;
76157;SDS011;64907;51.574;6.502;2023-02-22T07:33:26;84.83;;;38.67;;
76157;SDS011;64907;51.574;6.502;2023-02-22T07:35:51;76.30;;;34.53;;
76157;SDS011;64907;51.574;6.502;2023-02-22T07:38:17;74.57;;;34.40;;
76157;SDS011;64907;51.574;6.502;2023-02-22T07:40:43;73.68;;;32.85;;
76157;SDS011;64907;51.574;6.502;2023-02-22T07:45:37;99.35;;;40.55;;
76157;SDS011;64907;51.574;6.502;2023-02-22T07:48:03;98.37;;;39.63;;
76157;SDS011;64907;51.574;6.502;2023-02-22T07:50:29;95.85;;;40.30;;
76157;SDS011;64907;51.574;6.502;2023-02-22T07:52:56;102.72;;;40.17;;
76157;SDS011;64907;51.574;6.502;2023-02-22T07:55:24;100.93;;;42.10;;
76157;SDS011;64907;51.574;6.502;2023-02-22T07:57:50;112.35;;;42.60;;
76157;SDS011;64907;51.574;6.502;2023-02-22T08:00:20;143.32;;;46.13;;
76157;SDS011;64907;51.574;6.502;2023-02-22T08:02:46;108.18;;;44.05;;
76157;SDS011;64907;51.574;6.502;2023-02-22T08:05:12;113.68;;;44.65;;
76157;SDS011;64907;51.574;6.502;2023-02-22T08:07:38;115.55;;;44.50;;
76157;SDS011;64907;51.574;6.502;2023-02-22T08:10:04;110.22;;;43.30;;
76157;SDS011;64907;51.574;6.502;2023-02-22T08:12:31;113.60;;;43.83;;
76157;SDS011;64907;51.574;6.502;2023-02-22T08:14:57;114.90;;;43.40;;
76157;SDS011;64907;51.574;6.502;2023-02-22T08:17:22;113.82;;;46.35;;
76157;SDS011;64907;51.574;6.502;2023-02-22T08:19:47;118.15;;;47.15;;
76157;SDS011;64907;51.574;6.502;2023-02-22T08:22:13;114.70;;;45.57;;
76157;SDS011;64907;51.574;6.502;2023-02-22T08:24:38;120.15;;;47.05;;
76157;SDS011;64907;51.574;6.502;2023-02-22T08:27:04;118.15;;;45.13;;
76157;SDS011;64907;51.574;6.502;2023-02-22T08:29:29;109.23;;;44.43;;
76157;SDS011;64907;51.574;6.502;2023-02-22T08:31:57;111.82;;;46.03;;
76157;SDS011;64907;51.574;6.502;2023-02-22T08:34:23;102.18;;;45.08;;
76157;SDS011;64907;51.574;6.502;2023-02-22T08:36:48;101.47;;;43.88;;
76157;SDS011;64907;51.574;6.502;2023-02-22T08:39:13;110.20;;;46.37;;
76157;SDS011;64907;51.574;6.502;2023-02-22T08:41:39;107.67;;;44.57;;
76157;SDS011;64907;51.574;6.502;2023-02-22T08:44:04;95.37;;;42.67;;
76157;SDS011;64907;51.574;6.502;2023-02-22T08:46:29;97.27;;;42.07;;
76157;SDS011;64907;51.574;6.502;2023-02-22T08:48:54;88.20;;;40.77;;
76157;SDS011;64907;51.574;6.502;2023-02-22T08:51:19;85.90;;;39.50;;
76157;SDS011;64907;51.574;6.502;2023-02-22T08:53:45;75.75;;;36.63;;
76157;SDS011;64907;51.574;6.502;2023-02-22T08:56:10;78.90;;;37.60;;
76157;SDS011;64907;51.574;6.502;2023-02-22T08:58:41;68.68;;;34.80;;
76157;SDS011;64907;51.574;6.502;2023-02-22T09:01:06;74.95;;;36.05;;
76157;SDS011;64907;51.574;6.502;2023-02-22T09:03:31;70.77;;;36.27;;
76157;SDS011;64907;51.574;6.502;2023-02-22T09:08:27;70.40;;;34.30;;
76157;SDS011;64907;51.574;6.502;2023-02-22T09:10:52;58.50;;;31.93;;
76157;SDS011;64907;51.574;6.502;2023-02-22T09:13:17;67.23;;;35.37;;
76157;SDS011;64907;51.574;6.502;2023-02-22T09:15:42;70.33;;;35.73;;
76157;SDS011;64907;51.574;6.502;2023-02-22T09:18:08;69.60;;;35.27;;
76157;SDS011;64907;51.574;6.502;2023-02-22T09:20:34;57.30;;;30.23;;
76157;SDS011;64907;51.574;6.502;2023-02-22T09:23:00;59.05;;;31.42;;
76157;SDS011;64907;51.574;6.502;2023-02-22T09:25:27;50.47;;;28.40;;
76157;SDS011;64907;51.574;6.502;2023-02-22T09:27:52;47.53;;;27.13;;
76157;SDS011;64907;51.574;6.502;2023-02-22T09:30:31;41.17;;;24.20;;
76157;SDS011;64907;51.574;6.502;2023-02-22T09:32:58;41.42;;;24.80;;
76157;SDS011;64907;51.574;6.502;2023-02-22T09:35:23;38.95;;;23.92;;
76157;SDS011;64907;51.574;6.502;2023-02-22T09:37:51;33.55;;;22.88;;
76157;SDS011;64907;51.574;6.502;2023-02-22T09:40:16;31.15;;;21.02;;
76157;SDS011;64907;51.574;6.502;2023-02-22T09:43:14;29.23;;;20.67;;
76157;SDS011;64907;51.574;6.502;2023-02-22T09:48:18;29.15;;;18.58;;
76157;SDS011;64907;51.574;6.502;2023-02-22T09:50:44;28.38;;;19.60;;
76157;SDS011;64907;51.574;6.502;2023-02-22T09:55:51;27.83;;;17.60;;
76157;SDS011;64907;51.574;6.502;2023-02-22T10:00:58;24.27;;;17.75;;
76157;SDS011;64907;51.574;6.502;2023-02-22T10:08:31;21.23;;;16.70;;
76157;SDS011;64907;51.574;6.502;2023-02-22T10:11:03;21.42;;;14.88;;
76157;SDS011;64907;51.574;6.502;2023-02-22T10:13:36;22.02;;;15.20;;
76157;SDS011;64907;51.574;6.502;2023-02-22T10:26:35;19.73;;;15.38;;
76157;SDS011;64907;51.574;6.502;2023-02-22T10:31:47;19.65;;;14.52;;
76157;SDS011;64907;51.574;6.502;2023-02-22T10:34:15;20.85;;;13.95;;
76157;SDS011;64907;51.574;6.502;2023-02-22T10:36:45;18.33;;;13.43;;
76157;SDS011;64907;51.574;6.502;2023-02-22T10:41:37;21.55;;;15.00;;
76157;SDS011;64907;51.574;6.502;2023-02-22T10:44:12;20.63;;;15.07;;
76157;SDS011;64907;51.574;6.502;2023-02-22T10:49:06;17.30;;;13.35;;
76157;SDS011;64907;51.574;6.502;2023-02-22T10:51:31;17.58;;;13.25;;
76157;SDS011;64907;51.574;6.502;2023-02-22T10:56:26;17.63;;;13.63;;
76157;SDS011;64907;51.574;6.502;2023-02-22T10:59:01;15.88;;;13.13;;
76157;SDS011;64907;51.574;6.502;2023-02-22T11:04:15;19.02;;;13.50;;
76157;SDS011;64907;51.574;6.502;2023-02-22T11:06:43;19.58;;;12.65;;
76157;SDS011;64907;51.574;6.502;2023-02-22T11:09:10;20.13;;;14.30;;
76157;SDS011;64907;51.574;6.502;2023-02-22T11:11:37;17.52;;;13.52;;
76157;SDS011;64907;51.574;6.502;2023-02-22T11:14:02;20.95;;;14.07;;
76157;SDS011;64907;51.574;6.502;2023-02-22T11:16:50;19.55;;;14.00;;
76157;SDS011;64907;51.574;6.502;2023-02-22T11:21:58;19.75;;;13.07;;
76157;SDS011;64907;51.574;6.502;2023-02-22T11:24:57;17.33;;;13.45;;
76157;SDS011;64907;51.574;6.502;2023-02-22T11:27:41;16.60;;;13.23;;
76157;SDS011;64907;51.574;6.502;2023-02-22T11:30:23;18.25;;;13.38;;
76157;SDS011;64907;51.574;6.502;2023-02-22T11:32:53;18.52;;;12.77;;
76157;SDS011;64907;51.574;6.502;2023-02-22T11:37:52;17.83;;;12.60;;
76157;SDS011;64907;51.574;6.502;2023-02-22T11:42:45;17.45;;;12.77;;
76157;SDS011;64907;51.574;6.502;2023-02-22T11:45:20;16.25;;;11.55;;
76157;SDS011;64907;51.574;6.502;2023-02-22T11:47:50;16.98;;;11.98;;
76157;SDS011;64907;51.574;6.502;2023-02-22T11:50:27;17.23;;;11.45;;
76157;SDS011;64907;51.574;6.502;2023-02-22T11:52:56;16.23;;;11.55;;
76157;SDS011;64907;51.574;6.502;2023-02-22T11:55:26;14.18;;;11.15;;
76157;SDS011;64907;51.574;6.502;2023-02-22T11:58:02;16.05;;;12.05;;
76157;SDS011;64907;51.574;6.502;2023-02-22T12:00:48;19.95;;;12.48;;
76157;SDS011;64907;51.574;6.502;2023-02-22T12:03:22;15.07;;;10.95;;
76157;SDS011;64907;51.574;6.502;2023-02-22T12:06:01;16.50;;;12.20;;
76157;SDS011;64907;51.574;6.502;2023-02-22T12:16:27;16.42;;;12.20;;
76157;SDS011;64907;51.574;6.502;2023-02-22T12:21:29;16.15;;;11.70;;
76157;SDS011;64907;51.574;6.502;2023-02-22T12:23:58;17.70;;;12.13;;
76157;SDS011;64907;51.574;6.502;2023-02-22T12:26:33;12.93;;;11.25;;
76157;SDS011;64907;51.574;6.502;2023-02-22T12:29:02;13.30;;;9.80;;
76157;SDS011;64907;51.574;6.502;2023-02-22T12:31:35;14.32;;;11.32;;
76157;SDS011;64907;51.574;6.502;2023-02-22T12:34:11;13.77;;;10.30;;
76157;SDS011;64907;51.574;6.502;2023-02-22T12:36:38;14.63;;;10.93;;
76157;SDS011;64907;51.574;6.502;2023-02-22T12:39:11;14.43;;;10.48;;
76157;SDS011;64907;51.574;6.502;2023-02-22T12:41:47;13.13;;;10.20;;
76157;SDS011;64907;51.574;6.502;2023-02-22T12:44:24;11.88;;;9.80;;
76157;SDS011;64907;51.574;6.502;2023-02-22T12:46:51;9.65;;;8.65;;
76157;SDS011;64907;51.574;6.502;2023-02-22T12:49:32;9.48;;;7.97;;
76157;SDS011;64907;51.574;6.502;2023-02-22T12:54:27;14.02;;;9.27;;
76157;SDS011;64907;51.574;6.502;2023-02-22T12:59:40;13.65;;;9.52;;
76157;SDS011;64907;51.574;6.502;2023-02-22T13:02:15;14.57;;;10.50;;
76157;SDS011;64907;51.574;6.502;2023-02-22T13:04:42;13.52;;;9.65;;
76157;SDS011;64907;51.574;6.502;2023-02-22T13:07:22;11.83;;;9.47;;
76157;SDS011;64907;51.574;6.502;2023-02-22T13:14:52;14.35;;;10.60;;
76157;SDS011;64907;51.574;6.502;2023-02-22T13:17:29;16.63;;;11.00;;
76157;SDS011;64907;51.574;6.502;2023-02-22T13:20:02;15.23;;;11.25;;
76157;SDS011;64907;51.574;6.502;2023-02-22T13:27:50;16.13;;;10.80;;
76157;SDS011;64907;51.574;6.502;2023-02-22T13:30:18;13.52;;;10.23;;
76157;SDS011;64907;51.574;6.502;2023-02-22T13:33:18;17.83;;;12.13;;
76157;SDS011;64907;51.574;6.502;2023-02-22T13:40:53;16.83;;;11.93;;
76157;SDS011;64907;51.574;6.502;2023-02-22T13:51:03;20.48;;;11.95;;
76157;SDS011;64907;51.574;6.502;2023-02-22T13:53:38;16.58;;;11.15;;
76157;SDS011;64907;51.574;6.502;2023-02-22T13:56:07;17.88;;;12.18;;
76157;SDS011;64907;51.574;6.502;2023-02-22T13:58:42;16.25;;;12.57;;
76157;SDS011;64907;51.574;6.502;2023-02-22T14:01:11;14.93;;;11.32;;
76157;SDS011;64907;51.574;6.502;2023-02-22T14:04:02;15.85;;;12.20;;
76157;SDS011;64907;51.574;6.502;2023-02-22T14:06:40;17.75;;;12.15;;
76157;SDS011;64907;51.574;6.502;2023-02-22T14:09:16;18.38;;;13.18;;
76157;SDS011;64907;51.574;6.502;2023-02-22T14:11:52;17.25;;;12.50;;
76157;SDS011;64907;51.574;6.502;2023-02-22T14:14:20;15.07;;;12.05;;
76157;SDS011;64907;51.574;6.502;2023-02-22T14:17:15;16.80;;;11.63;;
76157;SDS011;64907;51.574;6.502;2023-02-22T14:19:31;18.23;;;12.73;;
76157;SDS011;64907;51.574;6.502;2023-02-22T14:22:00;17.70;;;12.93;;
76157;SDS011;64907;51.574;6.502;2023-02-22T14:24:28;15.48;;;11.68;;
76157;SDS011;64907;51.574;6.502;2023-02-22T14:27:06;16.17;;;13.45;;
76157;SDS011;64907;51.574;6.502;2023-02-22T14:29:31;14.60;;;11.80;;
76157;SDS011;64907;51.574;6.502;2023-02-22T14:31:58;18.27;;;12.65;;
76157;SDS011;64907;51.574;6.502;2023-02-22T14:37:06;17.27;;;12.38;;
76157;SDS011;64907;51.574;6.502;2023-02-22T14:39:49;23.17;;;13.25;;
76157;SDS011;64907;51.574;6.502;2023-02-22T14:47:24;19.13;;;11.77;;
76157;SDS011;64907;51.574;6.502;2023-02-22T14:49:54;15.55;;;11.30;;
76157;SDS011;64907;51.574;6.502;2023-02-22T14:52:22;13.35;;;10.95;;
76157;SDS011;64907;51.574;6.502;2023-02-22T14:54:54;15.45;;;11.32;;
76157;SDS011;64907;51.574;6.502;2023-02-22T15:00:12;12.68;;;10.20;;
76157;SDS011;64907;51.574;6.502;2023-02-22T15:02:54;13.98;;;10.27;;
76157;SDS011;64907;51.574;6.502;2023-02-22T15:05:21;10.65;;;9.50;;
76157;SDS011;64907;51.574;6.502;2023-02-22T15:07:53;12.48;;;9.75;;
76157;SDS011;64907;51.574;6.502;2023-02-22T15:10:22;12.45;;;9.57;;
76157;SDS011;64907;51.574;6.502;2023-02-22T15:12:58;17.27;;;10.70;;
76157;SDS011;64907;51.574;6.502;2023-02-22T15:15:34;12.25;;;11.05;;
76157;SDS011;64907;51.574;6.502;2023-02-22T15:20:30;13.60;;;11.50;;
76157;SDS011;64907;51.574;6.502;2023-02-22T15:23:09;14.80;;;12.82;;
76157;SDS011;64907;51.574;6.502;2023-02-22T15:25:34;13.52;;;11.82;;
76157;SDS011;64907;51.574;6.502;2023-02-22T15:30:33;14.23;;;12.70;;
76157;SDS011;64907;51.574;6.502;2023-02-22T15:33:09;16.00;;;12.80;;
76157;SDS011;64907;51.574;6.502;2023-02-22T15:35:35;15.45;;;12.85;;
76157;SDS011;64907;51.574;6.502;2023-02-22T15:40:25;16.67;;;13.10;;
76157;SDS011;64907;51.574;6.502;2023-02-22T15:42:57;15.80;;;13.60;;
76157;SDS011;64907;51.574;6.502;2023-02-22T15:45:22;15.77;;;14.15;;
76157;SDS011;64907;51.574;6.502;2023-02-22T15:48:07;14.98;;;13.38;;
76157;SDS011;64907;51.574;6.502;2023-02-22T15:50:33;16.40;;;14.43;;
76157;SDS011;64907;51.574;6.502;2023-02-22T15:53:03;19.50;;;14.38;;
76157;SDS011;64907;51.574;6.502;2023-02-22T15:55:42;22.77;;;14.55;;
76157;SDS011;64907;51.574;6.502;2023-02-22T16:00:39;19.00;;;14.65;;
76157;SDS011;64907;51.574;6.502;2023-02-22T16:03:12;17.75;;;14.95;;
76157;SDS011;64907;51.574;6.502;2023-02-22T16:05:39;20.75;;;14.68;;
76157;SDS011;64907;51.574;6.502;2023-02-22T16:08:13;19.92;;;15.13;;
76157;SDS011;64907;51.574;6.502;2023-02-22T16:10:39;22.63;;;14.70;;
76157;SDS011;64907;51.574;6.502;2023-02-22T16:13:23;16.92;;;14.38;;
76157;SDS011;64907;51.574;6.502;2023-02-22T16:18:25;17.73;;;14.65;;
76157;SDS011;64907;51.574;6.502;2023-02-22T16:20:58;17.40;;;15.43;;
76157;SDS011;64907;51.574;6.502;2023-02-22T16:23:24;20.65;;;16.20;;
76157;SDS011;64907;51.574;6.502;2023-02-22T16:31:24;25.45;;;15.45;;
76157;SDS011;64907;51.574;6.502;2023-02-22T16:33:51;20.73;;;16.13;;
76157;SDS011;64907;51.574;6.502;2023-02-22T16:36:17;22.77;;;15.68;;
76157;SDS011;64907;51.574;6.502;2023-02-22T16:38:43;19.05;;;15.30;;
76157;SDS011;64907;51.574;6.502;2023-02-22T16:41:11;19.02;;;15.55;;
76157;SDS011;64907;51.574;6.502;2023-02-22T16:43:36;20.95;;;15.85;;
76157;SDS011;64907;51.574;6.502;2023-02-22T16:46:03;17.93;;;15.67;;
76157;SDS011;64907;51.574;6.502;2023-02-22T16:48:30;19.60;;;15.15;;
76157;SDS011;64907;51.574;6.502;2023-02-22T16:51:06;19.27;;;15.82;;
76157;SDS011;64907;51.574;6.502;2023-02-22T16:53:33;21.52;;;16.27;;
76157;SDS011;64907;51.574;6.502;2023-02-22T16:56:02;22.20;;;16.52;;
76157;SDS011;64907;51.574;6.502;2023-02-22T16:58:33;18.20;;;15.80;;